Thursday, November 23, 2017, 4:30 AM EST
Back to Local

KCON, Concord, Concord Municipal Airport

Location: Concord, NH, United States Lat: 43.195
Local Time: 4:30 AM EST ( 9:30 GMT) Lon: -71.501
Time Zone: US/Eastern Elev: 344 ft

Show me the last for .
Show Decoded

2017-11-23 03:51 METAR KCON 230851Z AUTO 32005KT 10SM CLR M02/M08 A2998 RMK AO2 SLP155 T10171078
                 51014 =
2017-11-23 02:51 METAR KCON 230751Z AUTO 32010G25KT 10SM FEW033 M01/M07 A2997 RMK AO2 SLP152
                 T10061067 =
2017-11-23 01:51 METAR KCON 230651Z AUTO 32007G17KT 290V350 10SM OVC030 00/M06 A2996 RMK AO2
                 SLP149 T00001056 =
2017-11-23 00:51 METAR KCON 230551Z AUTO 32013KT 10SM OVC036 01/M06 A2994 RMK AO2 PK WND
                 33028/0508 SLP141 T00061056 10028 20006 51015 =
2017-11-22 23:51 METAR KCON 230451Z AUTO 31021G27KT 10SM OVC035 02/M04 A2993 RMK AO2 PK WND
                 30031/0433 SLP140 T00171044 400501017 =
2017-11-22 22:51 METAR KCON 230351Z AUTO 30010G19KT 10SM OVC036 02/M04 A2991 RMK AO2 SLP133
                 T00221039 =
2017-11-22 21:51 METAR KCON 230251Z AUTO 30013G22KT 10SM BKN032 OVC040 02/M03 A2989 RMK AO2
                 SLP126 T00221033 50004 =
2017-11-22 20:51 METAR KCON 230151Z AUTO 31018G27KT 10SM BKN047 03/M03 A2990 RMK AO2 PK WND
                 31027/0150 SLP127 T00281028 =
2017-11-22 20:31 METAR KCON 230131Z AUTO 31014G26KT 10SM SCT028 SCT034 OVC047 03/M02 A2990 RMK
                 AO2 PK WND 32026/0126 T00281017 =
2017-11-22 20:11 METAR KCON 230111Z AUTO 32011KT 10SM BKN028 OVC032 03/M01 A2989 =
2017-11-22 19:51 METAR KCON 230051Z AUTO 31007KT 10SM OVC030 03/M01 A2989 RMK AO2 SLP125
                 T00281006 =
2017-11-22 19:34 METAR KCON 230034Z AUTO 31009G15KT 10SM BKN028 BKN034 03/M01 A2989 RMK AO2
                 T00281006 =
2017-11-22 18:51 METAR KCON 222351Z AUTO 31011KT 10SM BKN030 OVC036 03/M01 A2988 RMK AO2 SLP123
                 60012 T00281006 10050 20028 53014 =
2017-11-22 18:23 METAR KCON 222323Z AUTO 30010KT 10SM BKN026 03/00 A2987 RMK AO2 T00280000 =
2017-11-22 17:51 METAR KCON 222251Z AUTO 32012G19KT 10SM FEW021 SCT044 BKN080 03/01 A2986 RMK AO2
                 SLP116 T00280006 =
2017-11-22 17:05 METAR KCON 222205Z AUTO 32009KT 10SM FEW020 SCT025 OVC044 04/02 A2986 RMK AO2
                 T00390017 =
2017-11-22 16:51 METAR KCON 222151Z AUTO 32010KT 10SM FEW018 BKN024 OVC044 04/02 A2986 RMK AO2
                 RAE16 SLP116 P0001 T00390017 =
2017-11-22 16:28 METAR KCON 222128Z AUTO 30010G16KT 10SM BKN020 BKN025 OVC060 04/03 A2985 RMK AO2
                 RAE16 P0001 T00440028 =
2017-11-22 16:16 METAR KCON 222116Z AUTO 31008KT 10SM SCT017 SCT023 OVC060 05/03 A2984 RMK AO2
                 RAE16 P0001 T00500033 =
2017-11-22 15:59 METAR KCON 222059Z AUTO 31008KT 7SM -RA BKN019 OVC032 05/03 A2984 =
2017-11-22 15:51 METAR KCON 222051Z AUTO 31008KT 8SM -RA SCT016 BKN031 OVC042 05/03 A2984 RMK AO2
                 SLP108 P0003 60011 T00500033 53001 =
2017-11-22 14:51 METAR KCON 221951Z AUTO 32004KT 6SM -RA BR OVC045 04/03 A2983 RMK AO2 SLP104
                 P0004 T00440028 =
2017-11-22 13:51 METAR KCON 221851Z AUTO 32006KT 3SM -RA BR OVC050 04/03 A2982 RMK AO2 SLP102
                 P0004 T00390028 =
2017-11-22 13:32 METAR KCON 221832Z AUTO 31006KT 3SM -RA BR FEW004 OVC048 04/02 A2982 RMK AO2
                 P0002 T00390022 =
2017-11-22 12:51 METAR KCON 221751Z AUTO 32003KT 4SM -RA BR OVC048 04/02 A2984 RMK AO2 SLP107
                 P0004 60020 I6000 T00390022 10039 21011 58020 =
2017-11-22 12:27 METAR KCON 221727Z AUTO 34005KT 4SM -RA BR FEW005 SCT023 OVC049 03/02 A2985 RMK
                 AO2 P0003 T00280017 =
2017-11-22 12:17 METAR KCON 221717Z AUTO 34005KT 3SM -RA BR SCT005 BKN023 OVC049 03/02 A2986 RMK
                 AO2 P0003 T00280017 =
2017-11-22 11:51 METAR KCON 221651Z AUTO 24004KT 2SM -RA BR FEW004 BKN026 OVC049 02/01 A2987 RMK
                 AO2 SLP119 P0008 T00220011 =
2017-11-22 11:48 METAR KCON 221648Z AUTO 25003KT 2SM -RA BR FEW004 BKN027 OVC046 03/01 A2987 RMK
                 AO2 P0008 =
2017-11-22 11:40 METAR KCON 221640Z AUTO 31004KT 1 3/4SM RA BR SCT013 BKN027 OVC035 03/01 A2987
                 RMK AO2 P0006 T00280011 =
2017-11-22 11:30 METAR KCON 221630Z AUTO 00000KT 1 1/2SM -RA BR BKN012 OVC033 02/01 A2987 RMK AO2
                 P0005 T00220011 =
2017-11-22 11:22 METAR KCON 221622Z AUTO 00000KT 1 3/4SM -RA BR SCT012 OVC034 02/01 A2988 RMK AO2
                 P0004 T00220011 =
2017-11-22 10:51 METAR KCON 221551Z AUTO 33004KT 2SM RA BR BKN011 OVC021 02/01 A2990 RMK AO2
                 SLP127 P0008 I1000 T00220006 =
2017-11-22 10:24 METAR KCON 221524Z AUTO 34003KT 2 1/2SM RA BR OVC010 02/01 A2991 RMK AO2 P0001
                 I1000 T00220006 =
2017-11-22 10:09 METAR KCON 221509Z AUTO 34007KT 6SM -RA BR BKN009 OVC024 02/00 A2991 RMK AO2
                 P0000 T00170000 =
2017-11-22 09:59 METAR KCON 221459Z AUTO 32007KT 6SM -RA BR SCT010 BKN026 OVC070 02/00 A2991 RMK
                 AO2 P0000 T00170000 =
2017-11-22 09:51 METAR KCON 221451Z AUTO 31004KT 7SM -RA SCT026 BKN055 OVC075 02/00 A2991 RMK AO2
                 RAB05 SLP130 P0000 60000 T00170000 58012 =
2017-11-22 08:51 METAR KCON 221351Z AUTO 00000KT 8SM FEW060 BKN090 OVC110 01/00 A2992 RMK AO2
                 UPE01RAB01E04 SLP135 P0000 T00110000 =
2017-11-22 07:51 METAR KCON 221251Z AUTO 00000KT 9SM UP BKN080 OVC095 01/M01 A2994 RMK AO2 UPB47
                 SLP143 P0000 T00061011 =
2017-11-22 06:51 METAR KCON 221151Z AUTO 00000KT 10SM CLR M01/M02 A2994 RMK AO2 SLP142 T10111022
                 10006 21017 58010 =
2017-11-22 05:51 METAR KCON 221051Z AUTO 00000KT 10SM CLR M01/M02 A2995 RMK AO2 SLP144 T10061022
                 =
2017-11-22 04:51 METAR KCON 220951Z AUTO 00000KT 10SM CLR M02/M03 A2998 RMK AO2 SLP154 T10171028
                 =

Support USWX by starting your Amazon purchase here.